Arlington, WY

3:41 PM MDT on July 31, 2014 (GMT -0600)
KWYMEDIC2 Elev 6646 ft | 41.89 °N, 106.19 °W | Change Station

Current weather conditions updated 11 minutes ago

Overcast
Overcast
73.6 °F
Feels Like 77 °F
N
4.0
Wind Variable Wind from SE
Gusts 8.0 mph

Today is forecast to be Much Warmer than yesterday.

Today
High -- | Low -- °F
--% Chance of Precip.
Yesterday
High -- | Low -- °F
Precip. -- in
5:56 AM 8:22 PM
Waxing Crescent, 21% visible
Pressure 30.32 in
Visibility 10.0 miles
Clouds Overcast 1800 ft
Heat Index 77 °F
Dew Point 46 °F
Humidity 38%
Rainfall 0.00 in
Snow Depth Not available.
UV 3 out of 12
Pollen 6.90 out of 12
Air Quality Not available.
Flu Activity Not available.
METAR KEHY 312135Z AUTO 09007G19KT 10SM OVC018 23/01 A3032 RMK AO2

More Conditions Fewer Conditions

Pressure 30.32 in
Visibility 10.0 miles
Clouds Overcast 1800 ft
Heat Index 77 °F
Dew Point 46 °F
Humidity 38%
Rainfall 0.00 in
Snow Depth Not available.
UV 3 out of 12
Pollen 6.90 out of 12
Air Quality Not available.
Flu Activity Not available.
METAR KEHY 312135Z AUTO 09007G19KT 10SM OVC018 23/01 A3032 RMK AO2

More Conditions Fewer Conditions

10-Day Weather Forecast

Almanac

Astronomy

Jul. 31, 2014 Rise Set
Actual Time 5:56 AM MDT 8:22 PM MDT
Civil Twilight 5:25 AM MDT 8:53 PM MDT
Nautical Twilight 4:45 AM MDT 9:32 PM MDT
Astronomical Twilight 4:02 AM MDT 10:16 PM MDT
Moon 10:31 AM MDT 10:31 PM MDT
Length of Visible Light 15h 28m
Length of Day
14h 25m
Tomorrow will be 2m 8s shorter.
Waxing Crescent, 21% of the Moon is Illuminated
Today
Waxing Crescent
Aug 3
First Quarter
Aug 10
Full
Aug 17
Last Quarter
Aug 25
New

Today's Extremes

State Highs State Lows

Community

WunderPhotos

Upload Photos

1,739,457 photos uploaded!

Nearby

Snow Depth

Station Depth Elevation
Cinnabar Park 0 in 9690 ft
Casper Mountain 0 in 7850 ft
Grave Springs 0 in 8550 ft
Big Sandy Opening 0 in 9080 ft
Cole Canyon 0 in 5910 ft

Earthquake Activity

City Distance Mag. Time & Date
No recent earthquake activity has been reported nearby.
Minimum magnitude displayed is 2.5.

Coastal Water Temperatures

Place Temperature
No Stations Reporting

Nearby Weather Stations

Station Location Temp. Heat Index Dew Point Humidity Wind Precip. Elev Updated Type
MesoWest WILCX1 , Rock River, WY 76 °F 74 °F - - North  at  - 0.00 in / hr 7004 ft 2:00 PM MDT MADIS
MesoWest RKRIVR , Rock River, WY 65 °F - - - ESE  at  4 mph 0.00 in / hr 6906 ft 2:00 PM MDT MADIS
MesoWest MEDIC1 , Medicine Bow, WY 71 °F - - - North  at  - 0.00 in / hr 6650 ft 2:00 PM MDT MADIS
Medicine Bow, WY 73.6 °F 77 °F 46 °F 38% SE  at  4.0 mph 0.00 in / hr 6646 ft 3:29 PM MDT Normal
RAWS DODGE CREEK WY, Rock River, WY 68 °F - 38 °F 33% NW  at  3 mph 0.00 in / hr 7100 ft 2:44 PM MDT MADIS

Show More Stations Show Fewer Stations